Time;durP1;ratioP1;P1;durP2;ratioP2;P2;SDS_P1;SDS_P2;PMS_P1;PMS_P2;Temp;Humidity;BMP_temperature;BMP_pressure;BME280_temperature;BME280_humidity;BME280_pressure;Samples;Min_cycle;Max_cycle;Signal;HPM_P1;HPM_P2
2022/07/29 00:04:25;;;;;;;;;;;;;;;22.07;50.65;95612.41;10257794;28;1960;-67
2022/07/29 00:09:25;;;;;;;;;;;;;;;22.07;50.48;95612.41;10244026;28;1962;-68
2022/07/29 00:14:26;;;;;;;;;;;;;;;22.09;51.07;95614.78;10240102;28;1795;-68
2022/07/29 00:19:26;;;;;;;;;;;;;;;22.08;51.32;95610.56;10236050;28;1942;-68
2022/07/29 00:24:27;;;;;;;;;;;;;;;22.04;51.62;95606.94;10241923;28;1954;-69
2022/07/29 00:29:27;;;;;;;;;;;;;;;22.01;52.50;95624.13;10240532;28;1918;-68
2022/07/29 00:39:46;;;;;;;;;;;;;;;21.95;52.91;95616.59;10238362;28;1899;-69
2022/07/29 00:44:46;;;;;;;;;;;;;;;21.93;53.47;95608.94;10238440;28;1920;-68
2022/07/29 00:49:47;;;;;;;;;;;;;;;21.98;52.83;95598.31;10237994;28;2070;-68
2022/07/29 00:54:47;;;;;;;;;;;;;;;22.06;52.83;95587.09;10245333;28;1998;-68
2022/07/29 00:59:48;;;;;;;;;;;;;;;22.10;52.42;95582.81;10255608;28;1913;-68
2022/07/29 01:04:48;;;;;;;;;;;;;;;22.12;51.26;95569.31;10256559;28;1947;-68
2022/07/29 01:09:49;;;;;;;;;;;;;;;22.00;50.75;95571.63;10235810;28;1974;-68
2022/07/29 01:14:52;;;;;;;;;;;;;;;22.01;50.67;95563.41;10233953;29;1907;-68
2022/07/29 01:19:59;;;;;;;;;;;;;;;22.05;50.56;95567.03;10237890;28;2081;-69
2022/07/29 01:25:18;;;;;;;;;;;;;;;22.17;50.37;95570.06;10238257;28;1986;-68
2022/07/29 01:30:29;;;;;;;;;;;;;;;22.30;49.99;95565.88;10238263;29;2034;-68
2022/07/29 01:35:33;;;;;;;;;;;;;;;22.42;50.08;95574.16;10225792;28;2049;-70
2022/07/29 01:40:41;;;;;;;;;;;;;;;22.50;49.92;95561.03;10240256;28;2065;-72
2022/07/29 01:45:42;;;;;;;;;;;;;;;22.52;49.55;95564.19;10235823;28;2001;-68
2022/07/29 01:50:46;;;;;;;;;;;;;;;22.57;49.48;95568.59;10240457;28;1973;-71
2022/07/29 01:55:47;;;;;;;;;;;;;;;22.61;49.38;95559.84;10244185;28;2060;-71
2022/07/29 02:00:47;;;;;;;;;;;;;;;22.65;49.23;95563.47;10235144;28;2099;-68
2022/07/29 02:05:48;;;;;;;;;;;;;;;22.63;48.53;95560.34;10234205;28;1995;-68
2022/07/29 02:10:48;;;;;;;;;;;;;;;22.66;48.93;95553.69;10234850;28;2217;-68
2022/07/29 02:15:49;;;;;;;;;;;;;;;22.67;48.95;95546.56;10235345;28;1945;-68
2022/07/29 02:20:53;;;;;;;;;;;;;;;22.74;49.37;95539.81;10251291;28;1939;-68
2022/07/29 02:25:54;;;;;;;;;;;;;;;22.75;49.65;95537.94;10236189;28;1989;-69
2022/07/29 02:30:55;;;;;;;;;;;;;;;22.73;49.75;95534.81;10242166;28;2065;-68
2022/07/29 02:35:56;;;;;;;;;;;;;;;22.73;49.82;95516.31;10237968;28;3348;-69
2022/07/29 02:40:57;;;;;;;;;;;;;;;22.73;49.71;95516.31;10235910;28;2078;-68
2022/07/29 02:45:57;;;;;;;;;;;;;;;22.73;50.00;95508.38;10235911;28;1914;-69
2022/07/29 02:51:00;;;;;;;;;;;;;;;22.77;49.73;95522.59;10238198;28;2081;-70
2022/07/29 02:56:10;;;;;;;;;;;;;;;22.81;49.69;95523.56;10237552;28;2081;-69
2022/07/29 03:01:15;;;;;;;;;;;;;;;22.82;49.85;95519.84;10244118;29;1941;-69
2022/07/29 03:06:17;;;;;;;;;;;;;;;22.79;50.05;95515.94;10242048;28;1966;-70
2022/07/29 03:11:17;;;;;;;;;;;;;;;22.79;50.01;95518.56;10240460;28;2005;-73
2022/07/29 03:16:18;;;;;;;;;;;;;;;22.83;49.95;95518.78;10262741;28;2309;-74
2022/07/29 03:21:18;;;;;;;;;;;;;;;22.85;50.05;95513.97;10245823;28;2044;-71
2022/07/29 03:26:19;;;;;;;;;;;;;;;22.84;49.76;95518.47;10244731;28;1957;-71
2022/07/29 03:31:20;;;;;;;;;;;;;;;22.85;49.61;95508.69;10243102;28;1971;-69
2022/07/29 03:36:21;;;;;;;;;;;;;;;22.83;49.73;95516.91;10240604;28;2009;-69
2022/07/29 03:41:21;;;;;;;;;;;;;;;22.86;49.65;95515.53;10246028;28;1937;-69
2022/07/29 03:46:23;;;;;;;;;;;;;;;22.84;49.58;95521.09;10254322;28;1918;-69
2022/07/29 03:51:23;;;;;;;;;;;;;;;22.81;49.78;95518.28;10242534;28;1984;-68
2022/07/29 03:56:23;;;;;;;;;;;;;;;22.79;50.25;95523.06;10256501;28;1940;-68
2022/07/29 04:01:25;;;;;;;;;;;;;;;22.76;50.48;95529.72;10228245;28;2246;-69
2022/07/29 04:06:26;;;;;;;;;;;;;;;22.78;50.16;95534.72;10242142;28;2015;-69
2022/07/29 04:11:26;;;;;;;;;;;;;;;22.76;50.66;95529.72;10234368;28;2037;-69
2022/07/29 04:16:27;;;;;;;;;;;;;;;22.76;50.70;95526.28;10238779;28;1875;-69
2022/07/29 04:21:27;;;;;;;;;;;;;;;22.77;50.81;95527.88;10255134;28;1963;-68
2022/07/29 04:26:27;;;;;;;;;;;;;;;22.75;50.85;95535.31;10236860;28;1991;-68
2022/07/29 04:31:28;;;;;;;;;;;;;;;22.76;50.99;95536.84;10256389;28;1925;-69
2022/07/29 04:36:29;;;;;;;;;;;;;;;22.76;51.04;95547.44;10256455;28;1953;-69
2022/07/29 04:41:29;;;;;;;;;;;;;;;22.77;51.04;95557.72;10232996;28;1941;-69
2022/07/29 04:46:30;;;;;;;;;;;;;;;22.78;51.34;95561.13;10240383;28;1971;-68
2022/07/29 04:51:31;;;;;;;;;;;;;;;22.79;50.95;95557.44;10242413;28;1906;-68
2022/07/29 04:56:32;;;;;;;;;;;;;;;22.84;50.94;95562.59;10243142;28;2000;-68
2022/07/29 05:01:32;;;;;;;;;;;;;;;22.86;50.79;95557.81;10240613;28;1900;-69
2022/07/29 05:06:33;;;;;;;;;;;;;;;22.87;50.42;95569.97;10239659;28;1997;-68
2022/07/29 05:11:35;;;;;;;;;;;;;;;22.85;50.68;95574.75;10236839;28;1994;-68
2022/07/29 05:16:36;;;;;;;;;;;;;;;22.84;50.62;95566.03;10235519;28;2021;-68
2022/07/29 05:21:36;;;;;;;;;;;;;;;22.90;50.63;95569.38;10241035;28;2332;-68
2022/07/29 05:26:37;;;;;;;;;;;;;;;22.92;51.06;95568.00;10252678;28;1910;-69
2022/07/29 05:31:38;;;;;;;;;;;;;;;22.93;50.89;95579.38;10239549;28;1834;-69
2022/07/29 05:36:38;;;;;;;;;;;;;;;22.93;50.73;95582.00;10238268;29;2535;-67
2022/07/29 05:41:39;;;;;;;;;;;;;;;22.96;50.83;95578.78;10255030;28;1861;-68
2022/07/29 05:46:41;;;;;;;;;;;;;;;23.04;50.82;95583.41;10238005;28;1918;-69
2022/07/29 05:51:44;;;;;;;;;;;;;;;23.00;51.00;95590.34;10253325;28;1898;-68
2022/07/29 05:56:44;;;;;;;;;;;;;;;22.82;50.70;95588.53;10252622;28;1738;-68
2022/07/29 06:01:46;;;;;;;;;;;;;;;22.77;50.87;95583.38;10239034;28;1806;-68
2022/07/29 06:06:46;;;;;;;;;;;;;;;22.67;50.87;95588.81;10237424;28;2427;-68
2022/07/29 06:11:47;;;;;;;;;;;;;;;22.65;51.23;95595.16;10241893;28;1829;-68
2022/07/29 06:16:48;;;;;;;;;;;;;;;22.69;51.12;95597.25;10238516;29;1845;-68
2022/07/29 06:21:49;;;;;;;;;;;;;;;22.75;50.82;95588.16;10238353;28;1833;-68
2022/07/29 06:26:49;;;;;;;;;;;;;;;22.75;50.69;95588.91;10253688;28;1907;-67
2022/07/29 06:31:49;;;;;;;;;;;;;;;22.76;50.61;95595.00;10236497;28;1767;-67
2022/07/29 06:36:50;;;;;;;;;;;;;;;22.85;50.46;95593.25;10236714;28;1780;-68
2022/07/29 06:41:51;;;;;;;;;;;;;;;22.92;50.42;95589.16;10238528;28;1862;-68
2022/07/29 06:46:54;;;;;;;;;;;;;;;22.97;50.10;95598.84;10237290;28;1879;-68
2022/07/29 06:51:55;;;;;;;;;;;;;;;22.96;50.23;95600.69;10239145;28;1716;-68
2022/07/29 06:56:56;;;;;;;;;;;;;;;23.04;50.17;95602.66;10235027;28;1796;-68
2022/07/29 07:01:56;;;;;;;;;;;;;;;23.07;49.81;95604.75;10233920;28;1853;-68
2022/07/29 07:06:57;;;;;;;;;;;;;;;23.07;48.68;95611.88;10245644;28;1986;-68
2022/07/29 07:11:57;;;;;;;;;;;;;;;23.12;49.35;95625.03;10229718;28;1804;-68
2022/07/29 07:17:00;;;;;;;;;;;;;;;23.20;49.40;95617.19;10229221;28;1825;-63
2022/07/29 07:22:00;;;;;;;;;;;;;;;23.26;49.12;95609.94;10237640;28;1845;-65
2022/07/29 07:27:01;;;;;;;;;;;;;;;23.30;48.86;95608.28;10234663;28;1903;-65
2022/07/29 07:32:02;;;;;;;;;;;;;;;23.33;48.73;95610.34;10235294;28;1787;-64
2022/07/29 07:37:03;;;;;;;;;;;;;;;23.38;48.70;95604.97;10238555;28;1834;-65
2022/07/29 07:42:04;;;;;;;;;;;;;;;23.41;48.85;95614.97;10236431;28;1828;-65
2022/07/29 07:47:05;;;;;;;;;;;;;;;23.43;48.75;95603.00;10240500;28;2049;-64
2022/07/29 07:52:05;;;;;;;;;;;;;;;23.45;48.56;95603.50;10223895;29;1859;-64
2022/07/29 07:57:06;;;;;;;;;;;;;;;23.49;48.56;95602.91;10246809;28;1764;-66
2022/07/29 08:02:07;;;;;;;;;;;;;;;23.51;48.29;95604.19;10241520;28;1850;-64
2022/07/29 08:07:08;;;;;;;;;;;;;;;23.53;48.44;95607.34;10239790;28;1974;-66
2022/07/29 08:12:09;;;;;;;;;;;;;;;23.57;48.44;95610.16;10237366;28;2016;-66
2022/07/29 08:17:09;;;;;;;;;;;;;;;23.58;48.08;95607.22;10255966;28;1868;-66
2022/07/29 08:22:09;;;;;;;;;;;;;;;23.61;48.11;95616.44;10253821;28;1872;-66
2022/07/29 08:27:10;;;;;;;;;;;;;;;23.64;48.13;95615.84;10238831;29;1906;-66
2022/07/29 08:32:11;;;;;;;;;;;;;;;23.65;48.14;95610.25;10243280;28;1880;-66
2022/07/29 08:37:12;;;;;;;;;;;;;;;23.68;47.98;95617.59;10236071;28;1862;-66
2022/07/29 08:42:13;;;;;;;;;;;;;;;23.69;47.99;95613.88;10243031;29;1868;-66
2022/07/29 08:47:13;;;;;;;;;;;;;;;23.73;48.24;95616.69;10240009;28;1906;-66
2022/07/29 08:52:14;;;;;;;;;;;;;;;23.73;48.16;95614.84;10256928;28;2038;-66
2022/07/29 08:57:14;;;;;;;;;;;;;;;23.75;48.16;95612.69;10242114;28;1801;-66
2022/07/29 09:02:21;;;;;;;;;;;;;;;23.79;48.04;95624.25;10232592;28;1894;-66
2022/07/29 09:07:21;;;;;;;;;;;;;;;23.80;48.24;95631.09;10232536;28;1924;-66
2022/07/29 09:12:22;;;;;;;;;;;;;;;23.82;48.21;95625.53;10234759;28;1823;-66
2022/07/29 09:17:41;;;;;;;;;;;;;;;23.83;48.10;95630.50;10236432;28;1834;-66
2022/07/29 09:22:42;;;;;;;;;;;;;;;23.88;48.09;95633.06;10242031;28;1827;-66
2022/07/29 09:27:43;;;;;;;;;;;;;;;23.91;48.10;95632.47;10243218;28;1966;-65
2022/07/29 09:32:54;;;;;;;;;;;;;;;23.95;48.17;95625.50;10236609;28;1854;-66
2022/07/29 09:37:55;;;;;;;;;;;;;;;24.02;47.88;95607.34;10236232;28;1825;-65
2022/07/29 09:42:57;;;;;;;;;;;;;;;24.06;48.02;95618.94;10239617;28;1799;-65
2022/07/29 09:48:02;;;;;;;;;;;;;;;24.09;48.01;95615.66;10234484;28;1966;-66
2022/07/29 09:53:03;;;;;;;;;;;;;;;24.10;47.81;95619.91;10246102;28;1949;-66
2022/07/29 09:58:14;;;;;;;;;;;;;;;24.11;47.87;95615.38;10254621;28;1802;-66
2022/07/29 10:03:15;;;;;;;;;;;;;;;24.12;48.32;95615.09;10237963;28;1853;-65
2022/07/29 10:08:19;;;;;;;;;;;;;;;24.18;47.95;95615.75;10232204;28;1918;-67
2022/07/29 10:13:19;;;;;;;;;;;;;;;24.17;48.29;95620.25;10236715;28;1833;-66
2022/07/29 10:18:20;;;;;;;;;;;;;;;24.19;48.09;95615.44;10232978;28;1858;-67
2022/07/29 10:23:20;;;;;;;;;;;;;;;24.20;47.96;95614.38;10237622;28;1803;-66
2022/07/29 10:28:20;;;;;;;;;;;;;;;24.21;48.27;95609.88;10239038;28;1879;-65
2022/07/29 10:33:21;;;;;;;;;;;;;;;24.22;48.09;95609.56;10237582;28;1772;-65
2022/07/29 10:38:27;;;;;;;;;;;;;;;24.23;48.00;95610.34;10232405;29;1858;-65
2022/07/29 10:43:35;;;;;;;;;;;;;;;24.22;47.87;95606.13;10233860;28;1870;-65
2022/07/29 10:48:56;;;;;;;;;;;;;;;24.24;47.91;95610.03;10218068;28;1918;-66
2022/07/29 10:53:59;;;;;;;;;;;;;;;24.25;48.05;95608.19;10249486;28;1856;-66
2022/07/29 10:59:18;;;;;;;;;;;;;;;24.29;47.87;95608.34;10234037;28;1840;-66
2022/07/29 11:04:37;;;;;;;;;;;;;;;24.32;48.43;95597.94;10235395;28;1905;-66
2022/07/29 11:09:38;;;;;;;;;;;;;;;24.34;48.18;95598.41;10244710;28;1910;-66
2022/07/29 11:15:02;;;;;;;;;;;;;;;24.34;48.35;95590.47;10229604;28;1910;-66
2022/07/29 11:20:21;;;;;;;;;;;;;;;24.35;47.82;95597.34;10243241;29;1869;-66
2022/07/29 11:25:21;;;;;;;;;;;;;;;24.37;48.03;95589.09;10235330;28;1851;-66
2022/07/29 11:30:21;;;;;;;;;;;;;;;24.38;48.33;95586.13;10242979;28;1989;-66
2022/07/29 11:35:23;;;;;;;;;;;;;;;24.41;48.20;95582.88;10246226;28;1855;-66
2022/07/29 11:40:23;;;;;;;;;;;;;;;24.43;48.47;95585.22;10235296;28;1864;-66
2022/07/29 11:45:28;;;;;;;;;;;;;;;24.44;48.08;95584.16;10242616;29;1889;-67
2022/07/29 11:50:35;;;;;;;;;;;;;;;24.42;48.40;95573.84;10239046;29;1985;-66
2022/07/29 11:55:36;;;;;;;;;;;;;;;24.41;47.88;95574.16;10238676;28;1926;-66
2022/07/29 12:00:37;;;;;;;;;;;;;;;24.39;47.77;95573.69;10233374;28;2243;-66
2022/07/29 12:05:39;;;;;;;;;;;;;;;24.40;47.90;95569.94;10236151;28;1895;-66
2022/07/29 12:10:39;;;;;;;;;;;;;;;24.42;48.16;95565.13;10239201;28;1914;-66
2022/07/29 12:15:39;;;;;;;;;;;;;;;24.46;48.06;95563.44;10241320;28;1901;-66
2022/07/29 12:20:40;;;;;;;;;;;;;;;24.47;48.05;95562.34;10238907;28;1881;-66
2022/07/29 12:25:41;;;;;;;;;;;;;;;24.46;48.29;95558.16;10241398;28;1826;-66
2022/07/29 12:30:46;;;;;;;;;;;;;;;24.48;48.27;95550.69;10238493;28;1997;-66
2022/07/29 12:35:49;;;;;;;;;;;;;;;24.50;48.50;95561.75;10240325;28;1985;-67
2022/07/29 12:40:50;;;;;;;;;;;;;;;24.49;48.33;95558.31;10238732;29;1817;-67
2022/07/29 12:45:51;;;;;;;;;;;;;;;24.50;48.38;95554.59;10232646;28;1903;-67
2022/07/29 12:50:55;;;;;;;;;;;;;;;24.51;48.57;95545.53;10236694;28;1906;-67
2022/07/29 12:55:56;;;;;;;;;;;;;;;24.52;48.25;95546.34;10235798;28;1884;-67
2022/07/29 13:01:06;;;;;;;;;;;;;;;24.52;48.15;95556.94;10246976;28;1933;-68
2022/07/29 13:06:06;;;;;;;;;;;;;;;24.51;47.93;95550.06;10234766;28;1787;-67
2022/07/29 13:11:06;;;;;;;;;;;;;;;24.50;47.78;95557.25;10238520;28;1992;-67
2022/07/29 13:16:07;;;;;;;;;;;;;;;24.49;47.76;95553.00;10234801;28;1788;-67
2022/07/29 13:21:11;;;;;;;;;;;;;;;24.50;47.93;95551.16;10239511;28;1875;-68
2022/07/29 13:26:12;;;;;;;;;;;;;;;24.51;47.90;95550.84;10238761;28;1874;-68
2022/07/29 13:31:12;;;;;;;;;;;;;;;24.52;47.99;95548.97;10239274;28;1907;-67
2022/07/29 13:36:13;;;;;;;;;;;;;;;24.53;48.02;95566.44;10237770;28;1881;-68
2022/07/29 13:41:13;;;;;;;;;;;;;;;24.52;48.09;95556.94;10240908;28;1839;-67
2022/07/29 13:46:14;;;;;;;;;;;;;;;24.50;48.04;95551.94;10235981;28;1856;-67
2022/07/29 13:51:14;;;;;;;;;;;;;;;24.51;47.81;95544.75;10236497;28;1907;-67
2022/07/29 13:56:14;;;;;;;;;;;;;;;24.51;47.76;95544.75;10237671;28;2416;-67
2022/07/29 14:01:15;;;;;;;;;;;;;;;24.53;47.71;95531.97;10238419;28;1771;-67
2022/07/29 14:06:15;;;;;;;;;;;;;;;24.55;47.94;95532.47;10238410;28;1833;-68
2022/07/29 14:11:16;;;;;;;;;;;;;;;24.55;47.80;95529.81;10239811;28;1925;-68
2022/07/29 14:16:16;;;;;;;;;;;;;;;24.55;47.71;95530.59;10241463;28;1833;-68
2022/07/29 14:21:17;;;;;;;;;;;;;;;24.55;47.73;95529.81;10238568;28;1857;-68
2022/07/29 14:26:18;;;;;;;;;;;;;;;24.56;47.94;95515.50;10236217;29;1837;-68
2022/07/29 14:31:19;;;;;;;;;;;;;;;24.55;47.80;95514.69;10235797;28;1919;-68
2022/07/29 14:36:19;;;;;;;;;;;;;;;24.56;47.66;95516.28;10238858;28;1811;-68
2022/07/29 14:41:21;;;;;;;;;;;;;;;24.56;47.86;95513.63;10232070;28;1816;-68
2022/07/29 14:46:21;;;;;;;;;;;;;;;24.57;47.56;95519.69;10234124;28;1866;-68
2022/07/29 14:51:22;;;;;;;;;;;;;;;24.57;47.71;95527.63;10241125;28;1973;-67
2022/07/29 14:56:22;;;;;;;;;;;;;;;24.56;47.52;95537.47;10248716;28;1883;-68
2022/07/29 15:01:24;;;;;;;;;;;;;;;24.57;47.56;95538.25;10251401;28;1779;-68
2022/07/29 15:06:24;;;;;;;;;;;;;;;24.57;47.50;95540.88;10242461;28;1836;-68
2022/07/29 15:11:25;;;;;;;;;;;;;;;24.58;47.64;95545.13;10246561;28;1914;-67
2022/07/29 15:16:25;;;;;;;;;;;;;;;24.60;47.68;95545.59;10240539;28;1833;-67
2022/07/29 15:21:25;;;;;;;;;;;;;;;24.60;47.62;95541.09;10249057;28;1806;-67
2022/07/29 15:26:26;;;;;;;;;;;;;;;24.61;47.53;95539.19;10249775;28;1874;-66
2022/07/29 15:31:26;;;;;;;;;;;;;;;24.61;47.69;95539.19;10247704;28;1890;-64
2022/07/29 15:36:26;;;;;;;;;;;;;;;24.62;47.94;95540.78;10244327;28;1804;-66
2022/07/29 15:41:27;;;;;;;;;;;;;;;24.65;48.11;95540.16;10252161;28;1890;-66
2022/07/29 15:51:47;;;;;;;;;;;;;;;24.68;47.85;95555.47;10261557;28;1910;-67
2022/07/29 15:56:48;;;;;;;;;;;;;;;24.68;47.98;95552.81;10261644;28;1873;-67
2022/07/29 16:01:50;;;;;;;;;;;;;;;24.64;47.89;95565.91;10244105;28;1807;-68
2022/07/29 16:06:51;;;;;;;;;;;;;;;24.59;47.95;95562.56;10242772;28;1895;-68
2022/07/29 16:11:52;;;;;;;;;;;;;;;24.54;48.02;95568.00;10235497;28;1935;-66
2022/07/29 16:16:53;;;;;;;;;;;;;;;24.48;47.94;95567.38;10236838;28;1917;-68
2022/07/29 16:21:54;;;;;;;;;;;;;;;24.45;48.19;95564.50;10238448;28;1824;-69
2022/07/29 16:26:56;;;;;;;;;;;;;;;24.41;48.00;95561.69;10235392;28;1873;-70
2022/07/29 16:31:56;;;;;;;;;;;;;;;24.44;47.94;95565.63;10241302;29;1918;-70
2022/07/29 16:36:57;;;;;;;;;;;;;;;24.40;47.95;95576.00;10241189;28;1883;-68
2022/07/29 16:41:58;;;;;;;;;;;;;;;24.39;48.01;95585.06;10252894;28;1967;-69
2022/07/29 16:46:58;;;;;;;;;;;;;;;24.35;48.07;95581.44;10236214;28;2372;-68
2022/07/29 16:51:59;;;;;;;;;;;;;;;24.31;48.13;95587.66;10246674;28;1887;-67
2022/07/29 16:57:00;;;;;;;;;;;;;;;24.30;48.21;95617.88;10237476;28;1883;-68
2022/07/29 17:02:01;;;;;;;;;;;;;;;24.21;49.24;95621.22;10239329;28;1919;-67
2022/07/29 17:07:01;;;;;;;;;;;;;;;24.22;49.45;95624.66;10238714;28;1910;-68
2022/07/29 17:12:02;;;;;;;;;;;;;;;24.22;49.52;95625.44;10238604;28;2116;-67
2022/07/29 17:17:04;;;;;;;;;;;;;;;24.18;48.52;95627.13;10232017;28;1932;-68
2022/07/29 17:22:05;;;;;;;;;;;;;;;24.09;47.38;95644.03;10239281;28;1855;-67
2022/07/29 17:27:07;;;;;;;;;;;;;;;24.03;47.05;95651.28;10254287;28;1911;-67
2022/07/29 17:32:07;;;;;;;;;;;;;;;24.01;47.40;95653.41;10236018;28;1864;-68
2022/07/29 17:37:08;;;;;;;;;;;;;;;23.92;47.47;95665.03;10244999;28;1859;-68
2022/07/29 17:42:09;;;;;;;;;;;;;;;23.73;48.15;95688.16;10235789;28;2332;-67
2022/07/29 17:47:09;;;;;;;;;;;;;;;23.66;48.93;95696.50;10237431;28;1911;-66
2022/07/29 17:52:10;;;;;;;;;;;;;;;23.53;49.54;95709.72;10252075;28;1870;-67
2022/07/29 17:57:10;;;;;;;;;;;;;;;23.49;49.57;95704.25;10239883;28;1830;-66
2022/07/29 18:02:13;;;;;;;;;;;;;;;23.72;49.45;95716.47;10233751;28;1792;-66
2022/07/29 18:07:14;;;;;;;;;;;;;;;23.80;48.97;95721.09;10245819;28;1971;-60
2022/07/29 18:12:14;;;;;;;;;;;;;;;23.88;49.07;95703.75;10239559;28;2238;-65
2022/07/29 18:17:16;;;;;;;;;;;;;;;23.95;49.03;95704.91;10240206;28;1763;-64
2022/07/29 18:22:17;;;;;;;;;;;;;;;24.00;49.53;95712.75;10241132;28;1810;-65
2022/07/29 18:27:18;;;;;;;;;;;;;;;24.04;49.81;95720.94;10237707;28;1920;-62
2022/07/29 18:32:18;;;;;;;;;;;;;;;24.03;50.36;95720.13;10229728;29;1996;-68
2022/07/29 18:37:18;;;;;;;;;;;;;;;24.01;50.35;95724.13;10232641;28;1835;-68
2022/07/29 18:42:19;;;;;;;;;;;;;;;23.96;50.49;95724.25;10233622;28;1865;-68
2022/07/29 18:47:20;;;;;;;;;;;;;;;23.89;50.63;95732.56;10232267;28;1915;-68
2022/07/29 18:52:20;;;;;;;;;;;;;;;23.85;50.83;95739.53;10233160;28;1790;-68
2022/07/29 18:57:21;;;;;;;;;;;;;;;23.86;51.35;95748.28;10234253;28;1782;-68
2022/07/29 19:02:22;;;;;;;;;;;;;;;23.89;51.09;95750.31;10234880;29;1817;-67
2022/07/29 19:07:24;;;;;;;;;;;;;;;23.90;50.91;95763.28;10233057;28;1911;-69
2022/07/29 19:12:24;;;;;;;;;;;;;;;23.84;51.00;95763.66;10236174;28;1850;-68
2022/07/29 19:17:25;;;;;;;;;;;;;;;23.77;51.08;95766.69;10251069;28;1843;-68
2022/07/29 19:22:26;;;;;;;;;;;;;;;23.69;51.09;95772.66;10239562;28;1795;-68
2022/07/29 19:27:26;;;;;;;;;;;;;;;23.64;51.40;95774.63;10231239;28;1950;-68
2022/07/29 19:32:26;;;;;;;;;;;;;;;23.57;51.43;95774.22;10246559;28;1910;-67
2022/07/29 19:37:26;;;;;;;;;;;;;;;23.51;51.77;95780.66;10236849;28;1869;-66
2022/07/29 19:42:27;;;;;;;;;;;;;;;23.50;52.21;95785.16;10240312;28;1774;-66
2022/07/29 19:47:27;;;;;;;;;;;;;;;23.50;52.13;95792.31;10239525;28;1989;-67
2022/07/29 19:52:27;;;;;;;;;;;;;;;23.44;52.44;95796.91;10242285;28;2003;-67
2022/07/29 19:57:28;;;;;;;;;;;;;;;23.46;52.74;95794.75;10244472;28;1880;-68
2022/07/29 20:02:29;;;;;;;;;;;;;;;23.53;52.45;95794.41;10259362;28;1918;-69
2022/07/29 20:07:29;;;;;;;;;;;;;;;23.66;51.92;95797.06;10256334;28;2000;-69
2022/07/29 20:12:29;;;;;;;;;;;;;;;23.73;51.62;95799.31;10244392;28;1871;-69
2022/07/29 20:17:30;;;;;;;;;;;;;;;23.77;51.50;95801.09;10260653;28;1789;-69
2022/07/29 20:22:30;;;;;;;;;;;;;;;23.84;51.68;95806.00;10235129;28;1828;-69
2022/07/29 20:27:30;;;;;;;;;;;;;;;23.88;51.38;95801.69;10235082;28;1916;-69
2022/07/29 20:32:31;;;;;;;;;;;;;;;23.92;51.49;95805.34;10238309;28;1842;-69
2022/07/29 20:37:32;;;;;;;;;;;;;;;23.92;51.32;95800.81;10234455;28;1825;-69
2022/07/29 20:42:32;;;;;;;;;;;;;;;23.93;51.16;95798.94;10235127;28;1914;-69
2022/07/29 20:47:33;;;;;;;;;;;;;;;23.93;51.33;95797.09;10236251;28;1956;-70
2022/07/29 20:52:33;;;;;;;;;;;;;;;23.95;51.10;95797.56;10243744;28;1862;-69
2022/07/29 20:57:34;;;;;;;;;;;;;;;23.96;51.44;95791.22;10240911;29;1838;-69
2022/07/29 21:02:34;;;;;;;;;;;;;;;23.97;50.97;95794.63;10243371;28;1808;-70
2022/07/29 21:07:35;;;;;;;;;;;;;;;23.97;50.73;95798.06;10240708;28;1914;-69
2022/07/29 21:12:36;;;;;;;;;;;;;;;24.01;50.63;95795.63;10256981;28;1866;-69
2022/07/29 21:17:39;;;;;;;;;;;;;;;24.01;50.52;95788.47;10242273;29;1816;-71
2022/07/29 21:22:39;;;;;;;;;;;;;;;24.02;50.43;95797.19;10243153;28;1987;-68
2022/07/29 21:33:00;;;;;;;;;;;;;;;24.03;50.68;95799.56;10234805;28;1872;-68
2022/07/29 21:38:00;;;;;;;;;;;;;;;24.04;50.67;95803.81;10241111;29;1885;-68
2022/07/29 21:43:00;;;;;;;;;;;;;;;24.04;50.39;95787.13;10240375;28;1904;-67
2022/07/29 21:48:02;;;;;;;;;;;;;;;24.04;50.26;95792.41;10235016;28;1922;-68
2022/07/29 21:53:02;;;;;;;;;;;;;;;24.05;50.25;95791.34;10240386;28;1873;-69
2022/07/29 21:58:02;;;;;;;;;;;;;;;24.05;50.48;95794.00;10238963;28;1805;-68
2022/07/29 22:03:03;;;;;;;;;;;;;;;24.06;50.51;95788.41;10239636;28;1898;-67
2022/07/29 22:08:03;;;;;;;;;;;;;;;24.06;50.17;95784.97;10240641;28;1906;-67
2022/07/29 22:13:04;;;;;;;;;;;;;;;24.05;50.31;95783.41;10238899;28;1827;-67
2022/07/29 22:18:04;;;;;;;;;;;;;;;24.07;50.55;95786.56;10235531;28;1843;-70
2022/07/29 22:23:04;;;;;;;;;;;;;;;24.08;50.25;95785.47;10252771;28;1950;-67
2022/07/29 22:28:05;;;;;;;;;;;;;;;24.09;50.42;95797.63;10252732;28;1983;-70
2022/07/29 22:33:05;;;;;;;;;;;;;;;24.08;50.29;95791.53;10234850;28;1859;-70
2022/07/29 22:38:06;;;;;;;;;;;;;;;24.09;50.46;95802.94;10235424;28;1920;-69
2022/07/29 22:43:07;;;;;;;;;;;;;;;24.09;50.40;95798.41;10236857;28;1824;-67
2022/07/29 22:48:07;;;;;;;;;;;;;;;24.10;50.35;95788.59;10233004;28;1914;-70
2022/07/29 22:53:08;;;;;;;;;;;;;;;24.09;50.28;95790.44;10234141;28;1896;-70
2022/07/29 22:58:09;;;;;;;;;;;;;;;24.08;50.46;95783.59;10237529;28;1891;-69
2022/07/29 23:03:10;;;;;;;;;;;;;;;24.08;50.22;95770.34;10253920;28;1835;-69
2022/07/29 23:08:10;;;;;;;;;;;;;;;24.08;50.30;95767.72;10236472;28;1915;-69
2022/07/29 23:13:11;;;;;;;;;;;;;;;24.07;50.26;95758.19;10241900;28;1840;-69
2022/07/29 23:18:12;;;;;;;;;;;;;;;24.06;50.30;95761.94;10243857;28;1884;-69
2022/07/29 23:23:12;;;;;;;;;;;;;;;24.06;50.29;95758.47;10242186;28;2229;-68
2022/07/29 23:28:13;;;;;;;;;;;;;;;24.06;50.37;95761.13;10244557;28;1985;-68
2022/07/29 23:33:13;;;;;;;;;;;;;;;24.07;50.27;95758.19;10246002;29;1859;-68
2022/07/29 23:38:13;;;;;;;;;;;;;;;24.07;50.18;95741.53;10246455;28;1872;-69
2022/07/29 23:43:14;;;;;;;;;;;;;;;24.05;50.25;95741.81;10244152;29;1843;-68
2022/07/29 23:48:14;;;;;;;;;;;;;;;24.06;50.17;95735.44;10240700;29;2148;-68
2022/07/29 23:53:16;;;;;;;;;;;;;;;24.06;49.93;95724.84;10263159;28;1785;-68
2022/07/29 23:58:16;;;;;;;;;;;;;;;24.07;49.88;95726.41;10242636;28;1879;-68
